Time;durP1;ratioP1;P1;durP2;ratioP2;P2;SDS_P1;SDS_P2;PMS_P1;PMS_P2;Temp;Humidity;BMP_temperature;BMP_pressure;BME280_temperature;BME280_humidity;BME280_pressure;Samples;Min_cycle;Max_cycle;Signal;HPM_P1;HPM_P2
2023/03/17 00:00:42;;;;;;;5.80;2.50;;;6.20;1.00;;;;;;5016044;28;20467;-48
2023/03/17 00:03:22;;;;;;;2.80;2.07;;;6.20;1.00;;;;;;5019732;28;20464;-49
2023/03/17 00:05:48;;;;;;;3.47;2.20;;;6.20;1.00;;;;;;5020995;28;20487;-48
2023/03/17 00:08:23;;;;;;;4.37;2.50;;;6.20;1.00;;;;;;5020527;28;20536;-48
2023/03/17 00:10:52;;;;;;;4.73;2.50;;;6.20;1.00;;;;;;5022603;28;20483;-48
2023/03/17 00:13:18;;;;;;;5.33;2.70;;;6.20;1.00;;;;;;5020304;28;20438;-49
2023/03/17 00:15:46;;;;;;;3.60;2.40;;;6.20;1.00;;;;;;5019766;28;20528;-48
2023/03/17 00:18:17;;;;;;;4.10;2.70;;;6.20;1.00;;;;;;5019879;28;20445;-49
2023/03/17 00:20:45;;;;;;;9.70;3.07;;;6.20;1.00;;;;;;5022936;28;20441;-48
2023/03/17 00:23:19;;;;;;;2.73;2.20;;;6.10;1.00;;;;;;5020672;28;20480;-48
2023/03/17 00:25:45;;;;;;;3.70;2.20;;;6.20;1.00;;;;;;5020239;28;20446;-48
2023/03/17 00:28:24;;;;;;;4.93;2.40;;;6.10;1.00;;;;;;5019494;28;20834;-48
2023/03/17 00:30:58;;;;;;;4.80;2.53;;;6.10;1.00;;;;;;5024207;28;21126;-49
2023/03/17 00:33:29;;;;;;;3.20;2.20;;;6.10;1.00;;;;;;5019147;28;20931;-49
2023/03/17 00:35:57;;;;;;;2.97;2.20;;;6.10;1.00;;;;;;5023192;28;20462;-48
2023/03/17 00:38:23;;;;;;;4.90;2.40;;;6.10;1.00;;;;;;5019270;28;20441;-48
2023/03/17 00:40:50;;;;;;;4.13;2.80;;;6.10;1.00;;;;;;5019632;28;20953;-48
2023/03/17 00:43:16;;;;;;;3.70;2.20;;;6.20;1.00;;;;;;5019293;28;20193;-48
2023/03/17 00:45:43;;;;;;;7.10;2.20;;;6.10;1.00;;;;;;5018773;28;21145;-49
2023/03/17 00:48:20;;;;;;;4.03;2.80;;;6.20;1.00;;;;;;5019769;28;20897;-48
2023/03/17 00:50:48;;;;;;;2.40;2.03;;;6.10;1.00;;;;;;5020361;28;20476;-48
2023/03/17 00:53:16;;;;;;;2.93;2.03;;;6.20;1.00;;;;;;5019758;28;20494;-48
2023/03/17 00:55:43;;;;;;;2.53;2.10;;;6.20;1.00;;;;;;5019465;28;20447;-48
2023/03/17 00:58:31;;;;;;;5.03;2.60;;;6.20;1.00;;;;;;5019365;28;20440;-48
2023/03/17 01:00:58;;;;;;;9.03;2.80;;;6.10;1.00;;;;;;5018747;28;20460;-49
2023/03/17 01:03:24;;;;;;;3.80;2.40;;;6.00;1.00;;;;;;5022619;28;21375;-48
2023/03/17 01:05:53;;;;;;;3.90;2.50;;;5.90;1.00;;;;;;5019797;28;20446;-48
2023/03/17 01:08:19;;;;;;;8.53;2.77;;;5.80;1.00;;;;;;5022861;28;20436;-48
2023/03/17 01:10:44;;;;;;;6.17;2.63;;;5.80;1.00;;;;;;5028266;28;21060;-48
2023/03/17 01:13:12;;;;;;;6.40;2.80;;;5.90;1.00;;;;;;5023510;28;20438;-49
2023/03/17 01:15:42;;;;;;;4.80;2.80;;;5.90;1.00;;;;;;5018601;28;20322;-48
2023/03/17 01:18:10;;;;;;;2.83;2.57;;;5.80;1.00;;;;;;5018507;28;20441;-48
2023/03/17 01:20:37;;;;;;;5.70;3.00;;;5.70;1.00;;;;;;5019003;28;20445;-48
2023/03/17 01:23:03;;;;;;;3.70;2.50;;;5.70;1.00;;;;;;5018106;28;20441;-48
2023/03/17 01:25:29;;;;;;;7.60;2.90;;;5.60;1.00;;;;;;5018556;28;20484;-49
2023/03/17 01:27:58;;;;;;;3.60;2.47;;;5.60;1.00;;;;;;5018830;28;20532;-48
2023/03/17 01:30:24;;;;;;;6.33;2.50;;;5.50;1.00;;;;;;5018986;28;20469;-48
2023/03/17 01:32:50;;;;;;;4.47;2.90;;;5.50;1.00;;;;;;5018742;28;20452;-49
2023/03/17 01:35:17;;;;;;;5.20;2.53;;;5.50;1.00;;;;;;5021786;28;20437;-48
2023/03/17 01:37:44;;;;;;;4.00;2.80;;;5.50;1.00;;;;;;5018557;28;20925;-48
2023/03/17 01:40:13;;;;;;;4.53;2.67;;;5.40;1.00;;;;;;5018182;28;20951;-48
2023/03/17 01:42:43;;;;;;;4.40;2.97;;;5.40;1.00;;;;;;5018604;28;20442;-48
2023/03/17 01:45:47;;;;;;;2.70;2.50;;;5.30;1.00;;;;;;5021484;28;20480;-48
2023/03/17 01:48:14;;;;;;;3.47;2.77;;;5.30;1.00;;;;;;5017988;28;20451;-49
2023/03/17 01:50:41;;;;;;;5.60;2.70;;;5.20;1.00;;;;;;5018168;28;20496;-49
2023/03/17 01:53:07;;;;;;;5.17;2.60;;;5.20;1.00;;;;;;5018152;28;20451;-48
2023/03/17 01:55:34;;;;;;;4.13;2.80;;;5.30;1.00;;;;;;5017921;28;20995;-48
2023/03/17 01:57:59;;;;;;;3.23;2.60;;;5.30;1.00;;;;;;5017763;28;20446;-48
2023/03/17 02:00:25;;;;;;;4.33;3.00;;;5.30;1.00;;;;;;5018323;28;20496;-49
2023/03/17 02:02:54;;;;;;;5.73;3.70;;;5.20;1.00;;;;;;5017625;28;20737;-48
2023/03/17 02:05:24;;;;;;;8.43;3.27;;;5.20;1.00;;;;;;5017843;28;20198;-49
2023/03/17 02:07:52;;;;;;;3.60;2.63;;;5.20;1.00;;;;;;5021059;28;20480;-48
2023/03/17 02:10:20;;;;;;;5.70;3.10;;;5.30;1.00;;;;;;5018195;28;20473;-48
2023/03/17 02:12:50;;;;;;;3.80;2.90;;;5.30;1.00;;;;;;5017886;28;20490;-48
2023/03/17 02:15:16;;;;;;;4.30;2.90;;;5.30;1.00;;;;;;5017650;28;20443;-49
2023/03/17 02:17:42;;;;;;;3.30;2.37;;;5.20;1.00;;;;;;5017633;28;20482;-49
2023/03/17 02:20:17;;;;;;;4.50;2.73;;;5.30;1.00;;;;;;5017798;28;20543;-49
2023/03/17 02:22:45;;;;;;;5.20;3.03;;;5.30;1.00;;;;;;5018229;28;20236;-48
2023/03/17 02:25:12;;;;;;;4.80;3.60;;;5.30;1.00;;;;;;5021006;28;20776;-48
2023/03/17 02:27:42;;;;;;;4.40;2.97;;;5.30;1.00;;;;;;5017189;28;20462;-49
2023/03/17 02:30:10;;;;;;;5.00;3.30;;;5.30;1.00;;;;;;5021926;28;20470;-49
2023/03/17 02:32:37;;;;;;;4.93;3.47;;;5.30;1.00;;;;;;5017484;28;20454;-49
2023/03/17 02:35:04;;;;;;;7.20;3.30;;;5.30;1.00;;;;;;5016817;28;20453;-48
2023/03/17 02:37:30;;;;;;;4.80;3.20;;;5.20;1.00;;;;;;5017567;28;20592;-48
2023/03/17 02:39:55;;;;;;;4.77;3.40;;;5.30;1.00;;;;;;5016552;28;20535;-48
2023/03/17 02:42:21;;;;;;;8.60;3.90;;;5.20;1.00;;;;;;5016724;28;20261;-48
2023/03/17 02:44:47;;;;;;;5.07;3.10;;;5.20;1.00;;;;;;5016793;28;20238;-48
2023/03/17 02:47:13;;;;;;;4.40;3.27;;;5.20;1.00;;;;;;5017349;28;20525;-48
2023/03/17 02:49:40;;;;;;;7.73;3.60;;;5.30;1.00;;;;;;5016996;28;20480;-49
2023/03/17 02:52:06;;;;;;;6.30;3.30;;;5.30;1.00;;;;;;5017117;28;20437;-48
2023/03/17 02:54:32;;;;;;;4.37;3.37;;;5.30;1.00;;;;;;5017306;28;20433;-48
2023/03/17 02:56:58;;;;;;;11.57;3.97;;;5.30;1.00;;;;;;5016616;28;20466;-48
2023/03/17 02:59:24;;;;;;;6.27;3.80;;;5.30;1.00;;;;;;5017308;28;20191;-48
2023/03/17 03:01:49;;;;;;;4.17;3.20;;;5.20;1.00;;;;;;5016886;28;20464;-48
2023/03/17 03:04:16;;;;;;;6.20;3.80;;;5.20;1.00;;;;;;5016622;28;20803;-49
2023/03/17 03:06:43;;;;;;;5.60;3.43;;;5.30;1.00;;;;;;5016818;28;20207;-48
2023/03/17 03:09:10;;;;;;;6.47;3.90;;;5.30;1.00;;;;;;5016900;28;20625;-48
2023/03/17 03:11:36;;;;;;;5.63;3.33;;;5.20;1.00;;;;;;5017021;28;20533;-48
2023/03/17 03:14:02;;;;;;;6.20;3.67;;;5.20;1.00;;;;;;5016354;28;20458;-47
2023/03/17 03:16:28;;;;;;;6.87;3.87;;;5.20;1.00;;;;;;5017132;28;20442;-47
2023/03/17 03:18:54;;;;;;;5.97;4.30;;;5.20;1.00;;;;;;5016101;28;20191;-46
2023/03/17 03:21:20;;;;;;;6.53;4.13;;;5.20;1.00;;;;;;5016512;28;20187;-48
2023/03/17 03:23:46;;;;;;;5.40;4.10;;;5.30;1.00;;;;;;5019612;28;20443;-47
2023/03/17 03:26:12;;;;;;;6.90;4.00;;;5.30;1.00;;;;;;5020853;28;20944;-48
2023/03/17 03:28:37;;;;;;;5.00;3.57;;;5.40;1.00;;;;;;5016486;28;20218;-48
2023/03/17 03:31:03;;;;;;;5.70;4.00;;;5.40;1.00;;;;;;5016037;28;20222;-47
2023/03/17 03:33:29;;;;;;;6.37;4.00;;;5.50;1.00;;;;;;5016620;28;20184;-48
2023/03/17 03:35:54;;;;;;;5.30;3.90;;;5.50;1.00;;;;;;5016276;28;20248;-48
2023/03/17 03:38:20;;;;;;;6.53;3.87;;;5.40;1.00;;;;;;5016782;28;20186;-49
2023/03/17 03:40:46;;;;;;;8.50;3.93;;;5.40;1.00;;;;;;5015865;28;20192;-49
2023/03/17 03:43:12;;;;;;;6.03;4.00;;;5.40;1.00;;;;;;5016421;28;20205;-49
2023/03/17 03:45:38;;;;;;;6.77;4.07;;;5.40;1.00;;;;;;5015519;28;20465;-49
2023/03/17 03:48:04;;;;;;;9.97;4.40;;;5.30;1.00;;;;;;5016483;28;20649;-49
2023/03/17 03:50:30;;;;;;;8.33;4.20;;;5.30;1.00;;;;;;5016532;28;20222;-48
2023/03/17 03:52:56;;;;;;;6.10;4.10;;;5.30;1.00;;;;;;5016067;28;20198;-48
2023/03/17 03:55:22;;;;;;;5.70;4.27;;;5.20;1.00;;;;;;5016542;28;20511;-48
2023/03/17 03:57:47;;;;;;;8.83;4.10;;;5.20;1.00;;;;;;5015951;28;20868;-48
2023/03/17 04:00:13;;;;;;;5.00;3.90;;;5.20;1.00;;;;;;5016362;28;20194;-49
2023/03/17 04:02:40;;;;;;;6.50;3.83;;;5.10;1.00;;;;;;5016327;28;20285;-48
2023/03/17 04:05:08;;;;;;;7.47;4.90;;;5.00;1.00;;;;;;5016721;28;20433;-49
2023/03/17 04:07:34;;;;;;;5.70;3.80;;;4.90;1.00;;;;;;5015948;28;20442;-48
2023/03/17 04:10:00;;;;;;;7.00;4.20;;;5.00;1.00;;;;;;5015632;28;20489;-48
2023/03/17 04:12:25;;;;;;;6.23;4.40;;;5.10;1.00;;;;;;5016631;28;20434;-48
2023/03/17 04:14:51;;;;;;;11.60;4.70;;;5.00;1.00;;;;;;5015720;28;20186;-49
2023/03/17 04:17:17;;;;;;;7.40;4.87;;;4.90;1.00;;;;;;5016148;28;20236;-49
2023/03/17 04:19:42;;;;;;;9.30;4.40;;;4.90;1.00;;;;;;5019847;28;20215;-48
2023/03/17 04:22:10;;;;;;;4.53;3.80;;;4.90;1.00;;;;;;5015944;28;20653;-48
2023/03/17 04:24:36;;;;;;;6.80;4.33;;;4.90;1.00;;;;;;5015484;28;20666;-48
2023/03/17 04:27:02;;;;;;;5.30;3.93;;;4.90;1.00;;;;;;5015981;28;20555;-48
2023/03/17 04:29:28;;;;;;;7.43;4.17;;;4.80;1.00;;;;;;5016232;28;20525;-48
2023/03/17 04:31:54;;;;;;;7.93;4.30;;;4.90;1.00;;;;;;5015859;28;20513;-48
2023/03/17 04:34:19;;;;;;;6.17;3.90;;;4.90;1.00;;;;;;5016289;28;20187;-48
2023/03/17 04:36:46;;;;;;;6.50;4.47;;;4.90;1.00;;;;;;5015972;28;20194;-48
2023/03/17 04:39:13;;;;;;;6.37;4.47;;;4.90;1.00;;;;;;5015490;28;20749;-48
2023/03/17 04:41:38;;;;;;;7.47;4.47;;;4.90;1.00;;;;;;5015539;28;20438;-48
2023/03/17 04:44:05;;;;;;;7.03;4.60;;;4.90;1.00;;;;;;5016096;28;20493;-48
2023/03/17 04:46:32;;;;;;;6.40;4.93;;;4.80;1.00;;;;;;5016303;28;20237;-48
2023/03/17 04:48:57;;;;;;;7.60;4.87;;;4.80;1.00;;;;;;5019010;28;20867;-48
2023/03/17 04:51:23;;;;;;;10.47;5.20;;;4.80;1.00;;;;;;5019621;28;20529;-48
2023/03/17 04:53:49;;;;;;;6.97;4.90;;;4.80;1.00;;;;;;5019358;28;20698;-48
2023/03/17 04:56:15;;;;;;;7.07;4.70;;;4.80;1.00;;;;;;5019213;28;20186;-49
2023/03/17 04:58:41;;;;;;;10.40;5.67;;;4.80;1.00;;;;;;5026848;28;20547;-49
2023/03/17 05:01:07;;;;;;;9.53;5.03;;;4.70;1.00;;;;;;5020090;28;20189;-49
2023/03/17 05:03:33;;;;;;;8.00;4.90;;;4.70;1.00;;;;;;5018937;28;20452;-48
2023/03/17 05:06:00;;;;;;;10.20;5.20;;;4.60;1.00;;;;;;5022618;28;20453;-49
2023/03/17 05:08:27;;;;;;;9.73;5.13;;;4.70;1.00;;;;;;5021191;28;20968;-48
2023/03/17 05:10:54;;;;;;;9.27;4.97;;;4.70;1.00;;;;;;5019230;28;21023;-49
2023/03/17 05:13:20;;;;;;;9.93;5.17;;;4.60;1.00;;;;;;5019069;28;20449;-49
2023/03/17 05:15:50;;;;;;;6.83;5.00;;;4.70;1.00;;;;;;5022651;28;20453;-49
2023/03/17 05:18:17;;;;;;;8.43;5.13;;;4.70;1.00;;;;;;5019276;28;20435;-49
2023/03/17 05:20:42;;;;;;;9.40;5.07;;;4.60;1.00;;;;;;5019039;28;20464;-49
2023/03/17 05:23:08;;;;;;;7.67;5.03;;;4.70;1.00;;;;;;5018540;28;20432;-49
2023/03/17 05:25:34;;;;;;;9.53;5.70;;;4.60;1.00;;;;;;5018192;28;20189;-49
2023/03/17 05:28:00;;;;;;;11.00;4.93;;;4.50;1.00;;;;;;5018886;28;20218;-49
2023/03/17 05:30:26;;;;;;;8.37;5.23;;;4.50;1.00;;;;;;5018721;28;20222;-49
2023/03/17 05:32:52;;;;;;;7.57;4.90;;;4.40;1.00;;;;;;5018566;28;20188;-49
2023/03/17 05:35:18;;;;;;;9.53;5.00;;;4.50;1.00;;;;;;5022405;28;20788;-50
2023/03/17 05:37:45;;;;;;;8.17;5.40;;;4.50;1.00;;;;;;5018621;28;20442;-49
2023/03/17 05:40:11;;;;;;;15.33;5.10;;;4.40;1.00;;;;;;5018449;28;20187;-49
2023/03/17 05:42:37;;;;;;;9.00;6.10;;;4.40;1.00;;;;;;5017700;28;21022;-49
2023/03/17 05:45:05;;;;;;;10.93;5.10;;;4.40;1.00;;;;;;5017952;28;20826;-49
2023/03/17 05:47:32;;;;;;;7.53;5.90;;;4.40;1.00;;;;;;5018405;28;20438;-49
2023/03/17 05:50:01;;;;;;;8.53;5.67;;;4.40;1.00;;;;;;5019342;28;20519;-49
2023/03/17 05:52:27;;;;;;;8.53;5.27;;;4.40;1.00;;;;;;5018320;28;20442;-49
2023/03/17 05:54:53;;;;;;;10.27;6.63;;;4.40;1.00;;;;;;5017812;28;21066;-49
2023/03/17 05:57:20;;;;;;;8.83;5.13;;;4.40;1.00;;;;;;5018417;28;20453;-49
2023/03/17 05:59:46;;;;;;;9.70;5.53;;;4.50;1.00;;;;;;5017182;28;20589;-48
2023/03/17 06:02:13;;;;;;;8.43;6.27;;;4.50;1.00;;;;;;5017610;28;20445;-47
2023/03/17 06:04:39;;;;;;;17.10;5.67;;;4.60;1.00;;;;;;5018467;28;20438;-48
2023/03/17 06:07:05;;;;;;;9.63;5.80;;;4.60;1.00;;;;;;5021705;28;20452;-48
2023/03/17 06:09:32;;;;;;;9.70;5.40;;;4.60;1.00;;;;;;5017949;28;20487;-48
2023/03/17 06:11:58;;;;;;;9.70;5.37;;;4.60;1.00;;;;;;5021170;28;20190;-48
2023/03/17 06:14:24;;;;;;;10.70;5.63;;;4.70;1.00;;;;;;5017796;28;20440;-49
2023/03/17 06:16:49;;;;;;;7.47;4.97;;;4.70;1.00;;;;;;5021640;28;20191;-48
2023/03/17 06:19:15;;;;;;;9.43;6.67;;;4.80;1.00;;;;;;5021101;28;20546;-48
2023/03/17 06:21:41;;;;;;;13.60;5.73;;;4.80;1.00;;;;;;5018012;28;20183;-48
2023/03/17 06:24:07;;;;;;;8.53;5.57;;;4.90;1.00;;;;;;5017355;28;21018;-47
2023/03/17 06:26:33;;;;;;;8.40;5.50;;;5.00;1.00;;;;;;5017523;28;20204;-49
2023/03/17 06:28:59;;;;;;;7.77;5.40;;;5.00;1.00;;;;;;5017809;28;20958;-49
2023/03/17 06:31:25;;;;;;;8.60;6.00;;;5.10;1.00;;;;;;5017932;28;20715;-48
2023/03/17 06:33:51;;;;;;;8.70;5.20;;;5.10;1.00;;;;;;5020203;28;20651;-48
2023/03/17 06:36:16;;;;;;;6.70;5.30;;;5.20;1.00;;;;;;5021921;28;20456;-47
2023/03/17 06:38:42;;;;;;;9.80;5.10;;;5.20;1.00;;;;;;5017493;28;20187;-48
2023/03/17 06:41:08;;;;;;;8.27;4.90;;;5.30;1.00;;;;;;5020863;28;20567;-48
2023/03/17 06:43:35;;;;;;;8.37;5.07;;;5.40;1.00;;;;;;5017018;28;20186;-48
2023/03/17 06:46:00;;;;;;;8.00;5.30;;;5.50;1.00;;;;;;5017563;28;20243;-47
2023/03/17 06:48:27;;;;;;;7.30;5.03;;;5.50;1.00;;;;;;5017861;28;20442;-48
2023/03/17 06:50:53;;;;;;;9.40;5.80;;;5.60;1.00;;;;;;5017194;28;20590;-49
2023/03/17 06:53:19;;;;;;;8.07;5.00;;;5.70;1.00;;;;;;5016774;28;20446;-49
2023/03/17 06:55:45;;;;;;;9.67;5.13;;;5.80;1.00;;;;;;5017028;28;20457;-49
2023/03/17 06:58:12;;;;;;;7.70;5.47;;;5.90;1.00;;;;;;5016515;28;20440;-49
2023/03/17 07:00:38;;;;;;;12.63;5.90;;;6.20;1.00;;;;;;5016751;28;20214;-49
2023/03/17 07:03:04;;;;;;;8.77;4.83;;;6.40;1.00;;;;;;5017600;28;20540;-49
2023/03/17 07:05:31;;;;;;;9.63;5.60;;;6.60;1.00;;;;;;5017567;28;20923;-49
2023/03/17 07:07:56;;;;;;;8.13;5.50;;;6.70;1.00;;;;;;5016881;28;20813;-49
2023/03/17 07:10:22;;;;;;;9.00;5.33;;;6.70;1.00;;;;;;5016402;28;20491;-49
2023/03/17 07:12:48;;;;;;;7.93;5.30;;;6.90;1.00;;;;;;5017291;28;20266;-49
2023/03/17 07:15:14;;;;;;;9.27;5.40;;;6.90;1.00;;;;;;5018273;28;20340;-48
2023/03/17 07:17:40;;;;;;;6.30;5.10;;;7.10;1.00;;;;;;5019146;28;20637;-48
2023/03/17 07:20:06;;;;;;;7.20;4.70;;;7.30;1.00;;;;;;5016537;28;20975;-48
2023/03/17 07:22:32;;;;;;;7.00;5.00;;;7.40;1.00;;;;;;5016707;28;20556;-48
2023/03/17 07:24:57;;;;;;;14.03;6.47;;;7.30;1.00;;;;;;5017042;28;20516;-48
2023/03/17 07:27:25;;;;;;;7.10;5.30;;;7.50;1.00;;;;;;5017225;28;20190;-48
2023/03/17 07:29:51;;;;;;;9.60;5.40;;;8.00;1.00;;;;;;5016351;28;20258;-48
2023/03/17 07:32:17;;;;;;;10.20;5.80;;;8.60;1.00;;;;;;5017902;28;20430;-49
2023/03/17 07:34:43;;;;;;;9.43;5.43;;;9.30;1.00;;;;;;5026295;28;20899;-49
2023/03/17 07:37:09;;;;;;;8.30;5.53;;;9.90;1.00;;;;;;5020227;28;20294;-48
2023/03/17 07:39:35;;;;;;;7.80;4.87;;;10.00;1.00;;;;;;5021657;28;20377;-48
2023/03/17 07:42:01;;;;;;;7.20;5.03;;;10.50;1.00;;;;;;5023069;28;20567;-48
2023/03/17 07:44:27;;;;;;;7.30;5.27;;;10.80;1.00;;;;;;5020279;28;20559;-48
2023/03/17 07:46:53;;;;;;;10.67;5.73;;;11.10;1.00;;;;;;5018278;28;20441;-48
2023/03/17 07:49:20;;;;;;;7.60;5.53;;;10.90;1.00;;;;;;5022965;28;20465;-48
2023/03/17 07:51:46;;;;;;;9.17;5.70;;;10.40;1.00;;;;;;5017237;28;20193;-48
2023/03/17 07:54:13;;;;;;;7.87;5.20;;;10.20;1.00;;;;;;5016653;28;20430;-48
2023/03/17 07:56:39;;;;;;;8.03;5.43;;;10.20;1.00;;;;;;5016010;28;20225;-48
2023/03/17 07:59:07;;;;;;;9.53;5.67;;;10.10;1.00;;;;;;5016260;28;20477;-48
2023/03/17 08:01:34;;;;;;;8.83;5.00;;;10.30;1.00;;;;;;5016292;28;20452;-48
2023/03/17 08:04:00;;;;;;;7.27;5.27;;;10.50;1.00;;;;;;5016172;28;20527;-48
2023/03/17 08:06:25;;;;;;;11.40;5.47;;;10.90;1.00;;;;;;5016162;28;20445;-48
2023/03/17 08:08:52;;;;;;;10.10;5.63;;;11.30;1.00;;;;;;5017324;28;20520;-48
2023/03/17 08:11:18;;;;;;;5.30;4.77;;;11.60;1.00;;;;;;5020321;28;20214;-49
2023/03/17 08:13:45;;;;;;;7.47;5.07;;;12.10;1.00;;;;;;5021996;28;20449;-49
2023/03/17 08:16:11;;;;;;;9.53;4.73;;;12.70;1.00;;;;;;5017569;28;20744;-48
2023/03/17 08:18:37;;;;;;;18.23;5.60;;;12.60;1.00;;;;;;5019776;28;20949;-48
2023/03/17 08:21:04;;;;;;;5.87;4.80;;;12.30;1.00;;;;;;5020854;28;20453;-48
2023/03/17 08:23:31;;;;;;;5.90;5.00;;;12.10;1.00;;;;;;5025620;28;20548;-48
2023/03/17 08:25:59;;;;;;;9.27;5.37;;;11.60;1.00;;;;;;5020060;28;20441;-48
2023/03/17 08:28:25;;;;;;;8.97;5.20;;;11.40;1.00;;;;;;5019530;28;20501;-48
2023/03/17 08:30:51;;;;;;;5.90;4.20;;;11.60;1.00;;;;;;5022962;28;20489;-48
2023/03/17 08:33:17;;;;;;;12.00;4.90;;;12.30;1.00;;;;;;5019862;28;20495;-49
2023/03/17 08:35:42;;;;;;;6.43;5.00;;;12.90;1.00;;;;;;5020633;28;20275;-48
2023/03/17 08:38:08;;;;;;;13.60;10.77;;;12.80;1.00;;;;;;5023311;28;20545;-48
2023/03/17 08:40:35;;;;;;;8.97;5.13;;;13.20;1.00;;;;;;5021527;28;20704;-49
2023/03/17 08:43:01;;;;;;;16.70;9.00;;;13.90;1.00;;;;;;5029414;28;20535;-49
2023/03/17 08:45:27;;;;;;;7.30;5.00;;;14.60;1.00;;;;;;5019105;28;20477;-48
2023/03/17 08:47:53;;;;;;;8.03;5.57;;;15.10;1.00;;;;;;5020298;28;20445;-49
2023/03/17 08:50:22;;;;;;;8.80;4.60;;;15.00;1.00;;;;;;5025496;28;20488;-48
2023/03/17 08:52:48;;;;;;;19.33;11.73;;;14.50;1.00;;;;;;5013297;28;20209;-49
2023/03/17 08:55:15;;;;;;;7.20;4.60;;;14.10;1.00;;;;;;5019393;28;20479;-48
2023/03/17 08:57:43;;;;;;;7.57;5.30;;;14.20;1.00;;;;;;5023550;28;20432;-48
2023/03/17 09:00:11;;;;;;;9.90;4.60;;;14.20;1.00;;;;;;5019315;28;20471;-48
2023/03/17 09:02:38;;;;;;;7.73;4.30;;;13.90;1.00;;;;;;5021369;28;20562;-48
2023/03/17 09:05:05;;;;;;;13.43;4.60;;;13.70;1.00;;;;;;5022523;28;20944;-48
2023/03/17 09:07:31;;;;;;;11.30;5.27;;;13.90;1.00;;;;;;5023538;28;20440;-48
2023/03/17 09:09:58;;;;;;;11.57;4.87;;;14.60;1.00;;;;;;5023166;28;20556;-48
2023/03/17 09:12:23;;;;;;;6.47;4.47;;;14.90;1.00;;;;;;5021243;28;20929;-48
2023/03/17 09:14:49;;;;;;;6.73;4.37;;;15.00;1.00;;;;;;5019134;28;20445;-48
2023/03/17 09:17:15;;;;;;;7.03;4.00;;;14.60;1.00;;;;;;5022313;28;20280;-48
2023/03/17 09:19:42;;;;;;;5.40;4.20;;;14.40;1.00;;;;;;5020921;28;20187;-49
2023/03/17 09:22:12;;;;;;;6.90;3.90;;;14.30;1.00;;;;;;5018913;28;20277;-49
2023/03/17 09:24:38;;;;;;;3.57;3.27;;;14.40;1.00;;;;;;5019663;28;20464;-48
2023/03/17 09:27:04;;;;;;;5.20;4.00;;;14.50;1.00;;;;;;5021833;28;20441;-48
2023/03/17 09:29:32;;;;;;;5.37;4.20;;;14.60;1.00;;;;;;5017735;28;20222;-48
2023/03/17 09:31:58;;;;;;;7.40;4.50;;;14.80;1.00;;;;;;5018187;28;20198;-49
2023/03/17 09:34:24;;;;;;;8.33;3.70;;;15.00;1.00;;;;;;5018110;28;20442;-49
2023/03/17 12:51:35;;;;;;;6.07;3.13;;;23.10;99.90;;;;;;5036697;28;20464;-50
2023/03/17 12:54:00;;;;;;;5.03;2.80;;;23.10;99.90;;;;;;5036786;28;20468;-51
2023/03/17 12:56:32;;;;;;;5.30;2.97;;;23.40;99.90;;;;;;5037146;28;20447;-50
2023/03/17 12:59:05;;;;;;;3.63;3.10;;;23.20;99.90;;;;;;5036635;28;20224;-50
2023/03/17 13:01:41;;;;;;;3.80;3.07;;;23.00;99.90;;;;;;5036801;28;20414;-50
2023/03/17 13:04:36;;;;;;;3.80;2.80;;;22.90;99.90;;;;;;5036859;28;20917;-50
2023/03/17 13:07:25;;;;;;;3.83;2.67;;;22.50;99.90;;;;;;5036662;28;20411;-49
2023/03/17 13:09:54;;;;;;;3.30;2.97;;;22.90;99.90;;;;;;5036311;28;20518;-49
2023/03/17 13:12:38;;;;;;;3.40;2.43;;;23.50;99.90;;;;;;5036460;28;20425;-50
2023/03/17 13:15:35;;;;;;;4.43;2.80;;;23.40;99.90;;;;;;5036382;28;20419;-50
2023/03/17 13:18:15;;;;;;;4.83;2.97;;;23.90;99.90;;;;;;5036681;28;20438;-50
2023/03/17 13:20:55;;;;;;;9.20;3.37;;;24.10;99.90;;;;;;5036426;28;20936;-50
2023/03/17 13:23:40;;;;;;;3.53;2.80;;;24.30;99.90;;;;;;5036649;28;20768;-49
2023/03/17 13:26:06;;;;;;;5.57;2.80;;;24.60;99.90;;;;;;5036532;28;20412;-50
2023/03/17 13:28:35;;;;;;;3.60;2.93;;;24.20;99.90;;;;;;5036188;28;20763;-50
2023/03/17 13:31:26;;;;;;;6.37;3.60;;;24.10;99.90;;;;;;5036199;28;20614;-49
2023/03/17 13:33:54;;;;;;;3.37;2.70;;;23.70;99.90;;;;;;5036150;28;20404;-50
2023/03/17 13:36:38;;;;;;;4.30;3.20;;;23.50;99.90;;;;;;5035996;28;20436;-51
2023/03/17 13:39:43;;;;;;;3.63;2.90;;;23.20;99.90;;;;;;5036120;28;20416;-49
2023/03/17 13:42:18;;;;;;;4.83;2.93;;;22.90;99.90;;;;;;5036262;28;20409;-50
2023/03/17 13:45:21;;;;;;;8.87;3.00;;;22.90;99.90;;;;;;5035503;28;20487;-50
2023/03/17 13:47:50;;;;;;;6.03;2.97;;;23.30;99.90;;;;;;5035593;28;20439;-50
2023/03/17 13:50:28;;;;;;;4.93;2.53;;;23.30;99.90;;;;;;5035645;28;20875;-49
2023/03/17 13:53:02;;;;;;;4.90;2.87;;;23.50;99.90;;;;;;5035850;28;20412;-51
2023/03/17 13:55:33;;;;;;;4.20;2.40;;;23.50;99.90;;;;;;5035516;28;20393;-51
2023/03/17 13:58:08;;;;;;;2.97;2.67;;;23.30;99.90;;;;;;5035919;28;20452;-50
2023/03/17 14:00:39;;;;;;;3.10;2.27;;;23.50;99.90;;;;;;5035576;28;20436;-49
2023/03/17 14:03:27;;;;;;;5.10;2.70;;;23.50;99.90;;;;;;5035839;28;20437;-50
2023/03/17 14:05:54;;;;;;;3.17;2.80;;;23.60;99.90;;;;;;5035568;28;20401;-50
2023/03/17 14:08:40;;;;;;;4.57;2.80;;;23.40;99.90;;;;;;5035060;28;20414;-49
2023/03/17 14:11:14;;;;;;;5.73;2.90;;;23.30;99.90;;;;;;5035194;28;20464;-50
2023/03/17 14:13:44;;;;;;;4.30;2.50;;;23.30;99.90;;;;;;5035439;28;20417;-51
2023/03/17 14:16:50;;;;;;;7.43;2.60;;;22.80;99.90;;;;;;5035207;28;20417;-51
2023/03/17 14:19:27;;;;;;;5.90;3.13;;;22.30;99.90;;;;;;5033542;28;20503;-50
2023/03/17 14:21:54;;;;;;;4.63;2.93;;;21.90;99.90;;;;;;5034898;28;20408;-51
2023/03/17 14:24:27;;;;;;;4.70;2.60;;;21.60;99.90;;;;;;5035107;28;20412;-50
2023/03/17 14:26:53;;;;;;;2.47;2.27;;;21.20;99.90;;;;;;5035149;28;20409;-51
2023/03/17 14:29:30;;;;;;;4.10;2.30;;;20.60;99.90;;;;;;5034680;28;20456;-50
2023/03/17 14:32:09;;;;;;;3.03;2.30;;;20.70;99.90;;;;;;5034994;28;20416;-51
2023/03/17 14:34:46;;;;;;;3.80;2.40;;;21.00;99.90;;;;;;5034770;28;20431;-50
2023/03/17 14:37:13;;;;;;;7.50;2.30;;;21.00;99.90;;;;;;5035181;28;20409;-50
2023/03/17 14:39:51;;;;;;;2.47;2.10;;;21.00;99.90;;;;;;5035193;28;20428;-50
2023/03/17 14:42:24;;;;;;;4.20;2.37;;;21.00;99.90;;;;;;5035059;28;20505;-50
2023/03/17 14:45:00;;;;;;;2.67;2.20;;;21.00;99.90;;;;;;5034893;28;20419;-50
2023/03/17 14:47:25;;;;;;;4.50;2.37;;;20.80;99.90;;;;;;5034892;28;20420;-50
2023/03/17 14:49:54;;;;;;;4.90;2.53;;;20.60;99.90;;;;;;5034217;28;20465;-50
2023/03/17 14:52:28;;;;;;;3.60;2.47;;;20.30;99.90;;;;;;5034243;28;20277;-50
2023/03/17 14:54:57;;;;;;;3.60;2.50;;;20.20;99.90;;;;;;5034636;28;20409;-51
2023/03/17 14:57:30;;;;;;;2.50;2.30;;;20.00;99.90;;;;;;5034531;28;20912;-50
2023/03/17 15:00:18;;;;;;;2.40;2.20;;;19.80;99.90;;;;;;5034715;28;20401;-50
2023/03/17 15:02:54;;;;;;;4.00;2.07;;;19.60;99.90;;;;;;5034677;28;20870;-49
2023/03/17 15:05:39;;;;;;;4.20;2.50;;;19.40;99.90;;;;;;5034712;28;20406;-50
2023/03/17 15:08:45;;;;;;;3.40;2.30;;;19.30;99.90;;;;;;5034643;28;20488;-51
2023/03/17 15:11:22;;;;;;;2.53;2.33;;;18.80;99.90;;;;;;5034205;28;20468;-49
2023/03/17 15:13:51;;;;;;;4.97;2.50;;;18.40;99.90;;;;;;5034487;28;20413;-49
2023/03/17 15:16:28;;;;;;;4.53;3.17;;;18.20;99.90;;;;;;5034492;28;20421;-49
2023/03/17 15:19:20;;;;;;;5.67;2.80;;;18.10;99.90;;;;;;5034525;28;20416;-50
2023/03/17 15:21:46;;;;;;;5.07;2.87;;;17.80;1.00;;;;;;5034003;28;20437;-49
2023/03/17 15:24:35;;;;;;;3.63;2.60;;;17.70;99.90;;;;;;5033704;28;20574;-50
2023/03/17 15:27:04;;;;;;;7.93;2.70;;;17.60;99.90;;;;;;5034190;28;20178;-50
2023/03/17 15:29:30;;;;;;;7.20;2.33;;;17.50;99.90;;;;;;5033975;28;20519;-50
2023/03/17 15:32:05;;;;;;;14.20;2.60;;;17.40;99.90;;;;;;5033505;28;20432;-51
2023/03/17 15:34:31;;;;;;;5.70;3.10;;;17.20;99.90;;;;;;5034062;28;20412;-50
2023/03/17 15:36:56;;;;;;;4.73;2.07;;;17.30;99.90;;;;;;5033723;28;20425;-50
2023/03/17 15:39:22;;;;;;;2.90;2.60;;;17.20;99.90;;;;;;5033637;28;20244;-50
2023/03/17 15:41:48;;;;;;;4.90;2.40;;;17.00;99.90;;;;;;5033815;28;20178;-50
2023/03/17 15:44:13;;;;;;;3.07;2.50;;;16.90;99.90;;;;;;5033384;28;20229;-50
2023/03/17 15:46:39;;;;;;;3.63;2.20;;;16.70;99.90;;;;;;5033504;28;20879;-50
2023/03/17 15:49:09;;;;;;;3.40;2.53;;;16.60;99.90;;;;;;5033928;28;20185;-49
2023/03/17 15:51:35;;;;;;;2.60;2.33;;;16.60;99.90;;;;;;5033848;28;20212;-50
2023/03/17 15:54:00;;;;;;;4.27;2.30;;;16.50;99.90;;;;;;5033816;28;20507;-50
2023/03/17 15:56:27;;;;;;;7.27;2.40;;;16.40;99.90;;;;;;5033551;28;20519;-50
2023/03/17 15:58:53;;;;;;;8.00;2.50;;;16.40;99.90;;;;;;5033643;28;20650;-49
2023/03/17 16:01:19;;;;;;;4.30;2.60;;;16.20;99.90;;;;;;5034048;28;20441;-49
2023/03/17 16:03:46;;;;;;;3.60;2.30;;;16.20;99.90;;;;;;5033872;28;20269;-49
2023/03/17 16:06:22;;;;;;;5.47;2.67;;;16.20;99.90;;;;;;5033534;28;20421;-49
2023/03/17 16:08:48;;;;;;;3.67;2.73;;;16.20;99.90;;;;;;5033730;28;20400;-49
2023/03/17 16:11:26;;;;;;;4.53;2.97;;;16.30;99.90;;;;;;5033581;28;20813;-49
2023/03/17 16:13:53;;;;;;;3.77;2.80;;;16.30;99.90;;;;;;5033485;28;20423;-49
2023/03/17 16:16:41;;;;;;;3.20;2.47;;;16.10;99.90;;;;;;5033448;28;20405;-48
2023/03/17 16:19:18;;;;;;;4.30;2.60;;;16.10;99.90;;;;;;5033909;28;20419;-49
2023/03/17 16:21:44;;;;;;;4.10;2.43;;;16.00;99.90;;;;;;5033715;28;20939;-49
2023/03/17 16:24:22;;;;;;;6.40;2.73;;;16.00;99.90;;;;;;5033738;28;20420;-48